createdAt,value
2019-02-18T00:00:35.457Z,100936.47
2019-02-18T00:05:39.256Z,100932.55
2019-02-18T00:10:43.097Z,100928.89
2019-02-18T00:15:46.920Z,100931.21
2019-02-18T00:20:50.737Z,100931.21
2019-02-18T00:25:54.544Z,100932.06
2019-02-18T00:30:58.351Z,100932.86
2019-02-18T00:36:02.164Z,100930.92
2019-02-18T00:41:06.003Z,100927.12
2019-02-18T00:46:09.827Z,100927.12
2019-02-18T00:51:13.644Z,100938.04
2019-02-18T00:56:17.481Z,100933.47
2019-02-18T01:01:21.325Z,100931.52
2019-02-18T01:06:25.137Z,100931.52
2019-02-18T01:11:28.956Z,100935.78
2019-02-18T01:16:32.800Z,100924.66
2019-02-18T01:21:36.600Z,100921.00
2019-02-18T01:26:40.401Z,100905.05
2019-02-18T01:31:44.209Z,100920.63
2019-02-18T01:36:48.018Z,100910.86
2019-02-18T01:41:54.169Z,100903.54
2019-02-18T01:47:00.094Z,100903.54
2019-02-18T01:52:03.922Z,100892.53
2019-02-18T01:57:07.763Z,100879.36
2019-02-18T02:02:11.600Z,100881.56
2019-02-18T02:07:15.433Z,100867.76
2019-02-18T02:12:19.263Z,100867.76
2019-02-18T02:17:23.091Z,100854.52
2019-02-18T02:22:26.933Z,100854.16
2019-02-18T02:27:30.737Z,100851.75
2019-02-18T02:32:34.570Z,100851.27
2019-02-18T02:37:38.405Z,100851.27
2019-02-18T02:42:42.237Z,100842.06
2019-02-18T02:47:46.075Z,100842.06
2019-02-18T02:52:49.921Z,100836.00
2019-02-18T02:57:53.730Z,100836.20
2019-02-18T03:02:57.545Z,100836.20
2019-02-18T03:08:01.380Z,100830.46
2019-02-18T03:13:05.200Z,100830.34
2019-02-18T03:18:09.031Z,100826.43
2019-02-18T03:23:12.850Z,100824.34
2019-02-18T03:28:42.096Z,100824.72
2019-02-18T03:33:58.970Z,100819.09
2019-02-18T03:39:04.662Z,100828.27
2019-02-18T03:44:08.468Z,100827.03
2019-02-18T03:49:12.267Z,100827.03
2019-02-18T03:54:16.079Z,100825.64
2019-02-18T03:59:19.903Z,100824.98
2019-02-18T04:04:23.730Z,100826.44
2019-02-18T04:09:27.520Z,100815.98
2019-02-18T04:14:31.366Z,100827.72
2019-02-18T04:19:35.183Z,100826.13
2019-02-18T04:24:39.004Z,100826.13
2019-02-18T04:29:42.823Z,100815.36
2019-02-18T04:34:46.659Z,100815.36
2019-02-18T04:39:50.452Z,100809.56
2019-02-18T04:44:54.251Z,100809.56
2019-02-18T04:49:58.084Z,100809.59
2019-02-18T04:55:01.944Z,100806.13
2019-02-18T05:00:08.433Z,100806.13
2019-02-18T05:05:12.015Z,100807.86
2019-02-18T05:10:15.825Z,100812.42
2019-02-18T05:15:19.628Z,100812.42
2019-02-18T05:20:23.455Z,100809.84
2019-02-18T05:25:27.232Z,100810.97
2019-02-18T05:30:31.049Z,100810.97
2019-02-18T05:35:34.867Z,100802.81
2019-02-18T05:40:38.683Z,100806.46
2019-02-18T05:45:42.509Z,100804.75
2019-02-18T05:50:46.323Z,100812.57
2019-02-18T05:55:50.147Z,100806.98
2019-02-18T06:00:53.947Z,100814.51
2019-02-18T06:05:57.747Z,100814.51
2019-02-18T06:11:01.562Z,100819.13
2019-02-18T06:16:05.372Z,100822.67
2019-02-18T06:21:09.177Z,100825.84
2019-02-18T06:26:13.003Z,100825.84
2019-02-18T06:31:16.808Z,100831.69
2019-02-18T06:36:20.637Z,100831.02
2019-02-18T06:41:24.448Z,100831.02
2019-02-18T06:46:31.445Z,100839.55
2019-02-18T06:51:35.244Z,100824.77
2019-02-18T06:56:49.528Z,100846.38
2019-02-18T07:02:10.388Z,100843.98
2019-02-18T07:07:20.449Z,100843.98
2019-02-18T07:12:27.852Z,100853.48
2019-02-18T07:17:31.618Z,100853.48
2019-02-18T07:22:35.416Z,100852.70
2019-02-18T07:27:39.203Z,100858.08
2019-02-18T07:32:43.227Z,100858.08
2019-02-18T07:37:47.067Z,100842.90
2019-02-18T07:42:50.872Z,100862.56
2019-02-18T07:47:54.657Z,100853.09
2019-02-18T07:52:58.441Z,100853.73
2019-02-18T07:58:02.221Z,100849.87
2019-02-18T08:03:06.003Z,100845.25
2019-02-18T08:08:09.782Z,100845.52
2019-02-18T08:13:13.588Z,100842.83
2019-02-18T08:18:17.367Z,100842.83
2019-02-18T08:23:21.162Z,100840.63
2019-02-18T08:28:24.952Z,100840.37
2019-02-18T08:33:28.741Z,100835.00
2019-02-18T08:38:32.551Z,100835.00
2019-02-18T08:43:36.336Z,100837.58
2019-02-18T08:48:40.129Z,100836.83
2019-02-18T08:53:43.926Z,100836.83
2019-02-18T08:58:47.736Z,100835.86
2019-02-18T09:03:51.532Z,100824.02
2019-02-18T09:08:55.306Z,100825.25
2019-02-18T09:13:59.103Z,100826.21
2019-02-18T09:19:02.891Z,100826.21
2019-02-18T09:24:20.151Z,100818.65
2019-02-18T09:29:23.927Z,100822.19
2019-02-18T09:34:27.715Z,100821.81
2019-02-18T09:39:31.846Z,100821.81
2019-02-18T09:44:35.716Z,100814.23
2019-02-18T09:49:39.587Z,100814.23
2019-02-18T09:54:43.404Z,100821.55
2019-02-18T09:59:47.225Z,100826.19
2019-02-18T10:04:51.062Z,100815.20
2019-02-18T10:09:54.875Z,100815.20
2019-02-18T10:14:58.693Z,100826.88
2019-02-18T10:20:02.491Z,100823.92
2019-02-18T10:25:07.526Z,100823.92
2019-02-18T10:30:11.760Z,100815.47
2019-02-18T10:35:15.603Z,100806.64
2019-02-18T10:40:19.391Z,100798.59
2019-02-18T10:45:23.216Z,100802.83
2019-02-18T10:50:27.022Z,100802.83
2019-02-18T10:55:30.982Z,100791.07
2019-02-18T11:00:34.960Z,100783.18
2019-02-18T11:05:38.767Z,100783.18
2019-02-18T11:10:42.586Z,100768.80
2019-02-18T11:15:46.395Z,100762.79
2019-02-18T11:20:50.211Z,100750.72
2019-02-18T11:25:54.015Z,100742.97
2019-02-18T11:30:57.827Z,100735.85
2019-02-18T11:36:01.653Z,100735.85
2019-02-18T11:41:05.452Z,100729.38
2019-02-18T11:46:09.259Z,100725.45
2019-02-18T11:51:13.334Z,100712.70
2019-02-18T11:56:17.158Z,100708.88
2019-02-18T12:01:21.093Z,100708.88
2019-02-18T12:06:24.906Z,100693.05
2019-02-18T12:11:37.923Z,100682.62
2019-02-18T12:16:34.330Z,100677.44
2019-02-18T12:21:38.282Z,100672.56
2019-02-18T12:26:42.098Z,100672.56
2019-02-18T12:31:45.916Z,100660.22
2019-02-18T12:36:49.759Z,100647.69
2019-02-18T12:41:53.564Z,100642.37
2019-02-18T12:46:57.392Z,100638.29
2019-02-18T12:52:01.581Z,100633.78
2019-02-18T12:57:05.408Z,100625.11
2019-02-18T13:02:09.220Z,100625.11
2019-02-18T13:07:13.315Z,100613.47
2019-02-18T13:12:17.204Z,100613.47
2019-02-18T13:17:20.992Z,100596.44
2019-02-18T13:22:24.798Z,100586.31
2019-02-18T13:27:28.800Z,100586.31
2019-02-18T13:32:32.611Z,100575.20
2019-02-18T13:37:36.414Z,100574.85
2019-02-18T13:42:40.216Z,100563.27
2019-02-18T13:47:44.021Z,100563.27
2019-02-18T13:52:47.829Z,100549.96
2019-02-18T13:57:51.639Z,100551.55
2019-02-18T14:02:55.465Z,100551.55
2019-02-18T14:07:59.271Z,100548.75
2019-02-18T14:13:03.094Z,100529.95
2019-02-18T14:18:06.931Z,100523.09
2019-02-18T14:23:11.227Z,100515.94
2019-02-18T14:28:15.055Z,100515.94
2019-02-18T14:33:18.873Z,100511.42
2019-02-18T14:38:22.697Z,100508.58
2019-02-18T14:43:26.491Z,100508.58
2019-02-18T14:48:30.690Z,100506.78
2019-02-18T14:53:34.489Z,100494.87
2019-02-18T14:58:38.330Z,100497.92
2019-02-18T15:03:42.157Z,100497.92
2019-02-18T15:08:45.978Z,100488.41
2019-02-18T15:13:49.790Z,100489.22
2019-02-18T15:18:53.602Z,100477.59
2019-02-18T15:23:57.413Z,100471.49
2019-02-18T15:29:01.214Z,100468.16
2019-02-18T15:34:05.038Z,100468.16
2019-02-18T15:39:08.856Z,100467.55
2019-02-18T15:44:12.693Z,100467.55
2019-02-18T15:49:16.887Z,100454.63
2019-02-18T15:54:20.716Z,100454.63
2019-02-18T15:59:24.527Z,100447.13
2019-02-18T16:04:28.332Z,100447.34
2019-02-18T16:09:32.127Z,100447.34
2019-02-18T16:14:36.330Z,100434.05
2019-02-18T16:19:40.159Z,100431.36
2019-02-18T16:24:43.974Z,100423.20
2019-02-18T16:29:48.614Z,100432.50
2019-02-18T16:34:52.505Z,100429.81
2019-02-18T16:39:57.085Z,100417.98
2019-02-18T16:45:00.939Z,100427.50
2019-02-18T16:50:05.173Z,100431.36
2019-02-18T16:55:10.109Z,100442.66
2019-02-18T17:00:29.029Z,100433.87
2019-02-18T17:05:32.896Z,100438.23
2019-02-18T17:10:36.692Z,100438.23
2019-02-18T17:15:40.591Z,100424.22
2019-02-18T17:20:44.431Z,100430.59
2019-02-18T17:25:48.514Z,100431.55
2019-02-18T17:30:52.339Z,100425.06
2019-02-18T17:35:56.184Z,100422.24
2019-02-18T17:41:01.482Z,100422.24
2019-02-18T17:46:05.429Z,100413.94
2019-02-18T17:51:09.247Z,100406.47
2019-02-18T17:56:13.055Z,100406.47
2019-02-18T18:01:16.880Z,100416.37
2019-02-18T18:06:20.867Z,100404.50
2019-02-18T18:11:24.703Z,100389.97
2019-02-18T18:16:28.523Z,100389.97
2019-02-18T18:21:32.335Z,100408.44
2019-02-18T18:26:36.142Z,100394.85
2019-02-18T18:31:39.945Z,100394.85
2019-02-18T18:36:43.770Z,100391.62
2019-02-18T18:41:47.570Z,100389.07
2019-02-18T18:46:51.416Z,100387.23
2019-02-18T18:51:55.618Z,100385.92
2019-02-18T18:56:59.435Z,100383.83
2019-02-18T19:02:03.321Z,100380.91
2019-02-18T19:07:07.149Z,100383.28
2019-02-18T19:12:10.965Z,100383.72
2019-02-18T19:17:14.777Z,100369.88
2019-02-18T19:22:18.604Z,100369.88
2019-02-18T19:27:22.796Z,100386.95
2019-02-18T19:32:26.627Z,100393.72
2019-02-18T19:37:30.479Z,100398.72
2019-02-18T19:42:34.273Z,100397.67
2019-02-18T19:47:38.060Z,100400.95
2019-02-18T19:52:41.843Z,100400.95
2019-02-18T19:57:45.647Z,100379.92
2019-02-18T20:02:49.825Z,100386.59
2019-02-18T20:07:53.655Z,100390.85
2019-02-18T20:12:57.457Z,100381.22
2019-02-18T20:18:01.239Z,100380.50
2019-02-18T20:23:05.048Z,100380.50
2019-02-18T20:28:08.832Z,100379.56
2019-02-18T20:33:12.607Z,100375.41
2019-02-18T20:38:16.430Z,100375.28
2019-02-18T20:43:20.210Z,100367.84
2019-02-18T20:48:23.991Z,100383.74
2019-02-18T20:53:27.809Z,100375.31
2019-02-18T20:58:31.610Z,100377.91
2019-02-18T21:03:35.707Z,100379.73
2019-02-18T21:08:39.570Z,100372.80
2019-02-18T21:13:43.362Z,100372.92
2019-02-18T21:18:47.156Z,100372.92
2019-02-18T21:23:51.032Z,100360.82
2019-02-18T21:28:54.867Z,100367.08
2019-02-18T21:33:58.669Z,100359.12
2019-02-18T21:39:04.108Z,100357.88
2019-02-18T21:44:07.981Z,100356.80
2019-02-18T21:49:14.074Z,100356.80
2019-02-18T21:54:17.922Z,100358.63
2019-02-18T21:59:21.716Z,100355.70
2019-02-18T22:04:25.989Z,100355.70
2019-02-18T22:09:29.783Z,100346.89
2019-02-18T22:14:35.707Z,100350.33
2019-02-18T22:19:39.117Z,100350.80
2019-02-18T22:24:42.973Z,100350.80
2019-02-18T22:29:47.054Z,100349.58
2019-02-18T22:34:50.856Z,100349.58
2019-02-18T22:39:54.640Z,100351.19
2019-02-18T22:44:58.471Z,100351.55
2019-02-18T22:50:02.507Z,100353.38
2019-02-18T22:55:07.067Z,100360.98
2019-02-18T23:00:18.427Z,100359.25
2019-02-18T23:05:22.292Z,100359.25
2019-02-18T23:10:26.092Z,100353.90
2019-02-18T23:15:29.866Z,100356.33
2019-02-18T23:20:33.826Z,100349.87
2019-02-18T23:25:37.628Z,100346.69
2019-02-18T23:30:41.417Z,100347.67
2019-02-18T23:35:45.310Z,100346.42
2019-02-18T23:40:49.126Z,100346.42
2019-02-18T23:45:52.958Z,100349.87
2019-02-18T23:50:56.762Z,100344.48
2019-02-18T23:56:00.563Z,100351.21
